createdAt,value
2018-03-18T00:00:40.230Z,87.80
2018-03-18T00:03:08.547Z,88.10
2018-03-18T00:05:36.110Z,88.00
2018-03-18T00:08:03.646Z,88.60
2018-03-18T00:10:31.955Z,88.40
2018-03-18T00:12:59.487Z,88.40
2018-03-18T00:15:27.030Z,87.80
2018-03-18T00:17:54.611Z,88.00
2018-03-18T00:20:22.123Z,87.90
2018-03-18T00:22:49.661Z,88.40
2018-03-18T00:25:17.981Z,88.30
2018-03-18T00:27:45.512Z,88.30
2018-03-18T00:30:13.846Z,88.30
2018-03-18T00:32:41.406Z,88.30
2018-03-18T00:35:08.954Z,87.50
2018-03-18T00:37:36.508Z,86.70
2018-03-18T00:40:04.053Z,86.10
2018-03-18T00:42:32.367Z,86.00
2018-03-18T00:44:59.913Z,85.90
2018-03-18T00:47:27.465Z,85.90
2018-03-18T00:49:55.774Z,86.50
2018-03-18T00:52:23.318Z,86.40
2018-03-18T00:54:51.649Z,87.10
2018-03-18T00:57:19.201Z,87.00
2018-03-18T00:59:46.729Z,86.60
2018-03-18T01:02:14.315Z,86.80
2018-03-18T01:04:41.855Z,86.20
2018-03-18T01:07:10.570Z,85.40
2018-03-18T01:09:38.099Z,85.40
2018-03-18T01:12:05.621Z,84.60
2018-03-18T01:14:33.207Z,84.80
2018-03-18T01:17:00.747Z,85.30
2018-03-18T01:19:28.302Z,85.90
2018-03-18T01:21:55.930Z,86.80
2018-03-18T01:24:23.467Z,87.30
2018-03-18T01:26:51.011Z,87.30
2018-03-18T01:29:18.556Z,88.20
2018-03-18T01:31:46.138Z,87.70
2018-03-18T01:34:13.742Z,88.20
2018-03-18T01:36:41.295Z,89.30
2018-03-18T01:39:08.889Z,89.80
2018-03-18T01:41:36.417Z,90.40
2018-03-18T01:44:04.751Z,91.20
2018-03-18T01:46:33.068Z,91.00
2018-03-18T01:49:00.589Z,91.00
2018-03-18T01:51:28.128Z,91.40
2018-03-18T01:53:55.678Z,91.20
2018-03-18T01:56:23.242Z,91.80
2018-03-18T01:58:50.779Z,92.30
2018-03-18T02:01:18.322Z,92.90
2018-03-18T02:03:46.629Z,93.70
2018-03-18T02:06:14.172Z,94.10
2018-03-18T02:08:42.508Z,94.40
2018-03-18T02:11:10.054Z,94.30
2018-03-18T02:13:37.600Z,94.40
2018-03-18T02:16:05.129Z,94.40
2018-03-18T02:18:32.667Z,94.70
2018-03-18T02:21:00.228Z,95.20
2018-03-18T02:23:27.766Z,94.70
2018-03-18T02:25:55.308Z,94.90
2018-03-18T02:28:23.610Z,94.50
2018-03-18T02:30:51.158Z,94.50
2018-03-18T02:33:19.565Z,94.60
2018-03-18T02:35:47.102Z,94.60
2018-03-18T02:38:15.424Z,95.50
2018-03-18T02:40:42.953Z,95.20
2018-03-18T02:43:11.265Z,95.00
2018-03-18T02:45:38.831Z,95.00
2018-03-18T02:48:06.378Z,94.90
2018-03-18T02:50:34.694Z,95.20
2018-03-18T02:53:02.257Z,95.20
2018-03-18T02:55:29.866Z,95.40
2018-03-18T02:57:57.427Z,95.30
2018-03-18T03:00:24.969Z,95.30
2018-03-18T03:02:53.277Z,95.10
2018-03-18T03:05:20.831Z,95.10
2018-03-18T03:07:48.362Z,95.00
2018-03-18T03:10:15.926Z,94.30
2018-03-18T03:12:43.479Z,94.10
2018-03-18T03:15:11.015Z,94.10
2018-03-18T03:17:38.555Z,94.30
2018-03-18T03:20:06.092Z,94.20
2018-03-18T03:22:33.736Z,93.80
2018-03-18T03:25:01.502Z,93.20
2018-03-18T03:27:29.046Z,92.90
2018-03-18T03:29:56.574Z,92.80
2018-03-18T03:32:24.880Z,92.40
2018-03-18T03:34:52.443Z,92.40
2018-03-18T03:37:20.057Z,92.20
2018-03-18T03:39:47.594Z,91.90
2018-03-18T03:42:15.129Z,91.90
2018-03-18T03:44:42.692Z,91.80
2018-03-18T03:47:10.246Z,91.50
2018-03-18T03:49:38.548Z,91.50
2018-03-18T03:52:06.090Z,91.50
2018-03-18T03:54:34.402Z,91.90
2018-03-18T03:57:01.944Z,91.90
2018-03-18T03:59:30.271Z,92.40
2018-03-18T04:01:57.814Z,92.40
2018-03-18T04:04:25.352Z,92.60
2018-03-18T04:06:53.669Z,92.90
2018-03-18T04:09:21.280Z,92.90
2018-03-18T04:11:48.840Z,93.20
2018-03-18T04:14:16.383Z,92.90
2018-03-18T04:16:43.918Z,92.40
2018-03-18T04:19:11.474Z,92.10
2018-03-18T04:21:39.783Z,91.00
2018-03-18T04:24:07.637Z,91.00
2018-03-18T04:26:35.182Z,90.50
2018-03-18T04:29:02.734Z,90.60
2018-03-18T04:31:30.275Z,90.70
2018-03-18T04:33:57.819Z,90.70
2018-03-18T04:36:25.393Z,90.40
2018-03-18T04:38:52.929Z,90.10
2018-03-18T04:41:20.468Z,90.10
2018-03-18T04:43:48.009Z,90.20
2018-03-18T04:46:15.592Z,90.40
2018-03-18T04:48:43.150Z,90.10
2018-03-18T04:51:10.681Z,89.70
2018-03-18T04:53:38.259Z,89.50
2018-03-18T04:56:06.569Z,89.80
2018-03-18T04:58:34.115Z,89.80
2018-03-18T05:01:01.669Z,90.10
2018-03-18T05:03:29.214Z,90.10
2018-03-18T05:05:56.743Z,89.70
2018-03-18T05:08:25.156Z,89.20
2018-03-18T05:10:52.692Z,89.20
2018-03-18T05:13:20.243Z,89.20
2018-03-18T05:15:47.796Z,89.20
2018-03-18T05:18:15.330Z,89.60
2018-03-18T05:20:42.863Z,88.90
2018-03-18T05:23:11.167Z,87.90
2018-03-18T05:25:38.720Z,87.90
2018-03-18T05:28:06.265Z,88.60
2018-03-18T05:30:33.801Z,89.20
2018-03-18T05:33:01.485Z,89.20
2018-03-18T05:35:29.011Z,89.20
2018-03-18T05:37:56.564Z,89.00
2018-03-18T05:40:24.160Z,89.00
2018-03-18T05:42:51.706Z,88.60
2018-03-18T05:45:19.251Z,88.70
2018-03-18T05:47:46.790Z,88.20
2018-03-18T05:50:15.410Z,88.20
2018-03-18T05:52:42.959Z,88.20
2018-03-18T05:55:11.264Z,87.90
2018-03-18T05:57:38.793Z,87.90
2018-03-18T06:00:06.324Z,87.90
2018-03-18T06:02:34.649Z,88.70
2018-03-18T06:05:02.971Z,88.90
2018-03-18T06:07:30.515Z,88.80
2018-03-18T06:09:58.061Z,88.70
2018-03-18T06:12:26.371Z,89.40
2018-03-18T06:14:53.928Z,89.40
2018-03-18T06:17:21.536Z,89.20
2018-03-18T06:19:49.049Z,88.60
2018-03-18T06:22:16.592Z,89.40
2018-03-18T06:24:44.197Z,89.30
2018-03-18T06:27:11.723Z,88.60
2018-03-18T06:29:39.272Z,87.80
2018-03-18T06:32:06.820Z,87.80
2018-03-18T06:34:34.377Z,88.60
2018-03-18T06:37:01.922Z,88.70
2018-03-18T06:39:29.490Z,88.50
2018-03-18T06:41:57.035Z,88.50
2018-03-18T06:44:25.339Z,88.40
2018-03-18T06:46:52.888Z,88.40
2018-03-18T06:49:21.199Z,89.10
2018-03-18T06:51:48.974Z,89.10
2018-03-18T06:54:16.526Z,89.50
2018-03-18T06:56:44.057Z,89.70
2018-03-18T06:59:12.411Z,89.20
2018-03-18T07:01:39.962Z,89.20
2018-03-18T07:04:07.532Z,88.90
2018-03-18T07:06:35.076Z,88.90
2018-03-18T07:09:02.629Z,88.40
2018-03-18T07:11:30.157Z,88.80
2018-03-18T07:13:57.686Z,88.50
2018-03-18T07:16:25.624Z,88.60
2018-03-18T07:18:53.173Z,88.30
2018-03-18T07:21:21.467Z,88.20
2018-03-18T07:23:49.014Z,88.00
2018-03-18T07:26:17.331Z,88.10
2018-03-18T07:28:44.899Z,88.10
2018-03-18T07:31:12.444Z,88.20
2018-03-18T07:33:39.998Z,88.20
2018-03-18T07:36:08.349Z,87.00
2018-03-18T07:38:36.680Z,86.80
2018-03-18T07:41:05.001Z,87.30
2018-03-18T07:43:32.550Z,87.20
2018-03-18T07:46:00.090Z,87.00
2018-03-18T07:48:27.750Z,86.80
2018-03-18T07:50:56.064Z,86.60
2018-03-18T07:53:23.667Z,86.60
2018-03-18T07:55:51.202Z,86.40
2018-03-18T07:58:18.739Z,86.60
2018-03-18T08:00:47.047Z,86.30
2018-03-18T08:03:14.597Z,86.30
2018-03-18T08:05:42.165Z,86.30
2018-03-18T08:08:09.704Z,86.70
2018-03-18T08:10:38.058Z,87.20
2018-03-18T08:13:05.597Z,87.20
2018-03-18T08:15:33.199Z,87.10
2018-03-18T08:18:00.822Z,86.90
2018-03-18T08:20:28.364Z,86.90
2018-03-18T08:22:56.656Z,88.10
2018-03-18T08:25:24.219Z,88.10
2018-03-18T08:27:51.777Z,87.60
2018-03-18T08:30:20.145Z,88.50
2018-03-18T08:32:47.684Z,88.30
2018-03-18T08:35:16.385Z,87.80
2018-03-18T08:37:46.611Z,87.90
2018-03-18T08:40:14.122Z,88.40
2018-03-18T08:42:41.685Z,88.30
2018-03-18T08:45:09.249Z,88.10
2018-03-18T08:47:36.867Z,88.10
2018-03-18T08:50:04.407Z,88.00
2018-03-18T08:52:32.060Z,88.10
2018-03-18T08:54:59.721Z,88.20
2018-03-18T08:57:27.254Z,88.00
2018-03-18T08:59:55.565Z,88.40
2018-03-18T09:02:23.106Z,87.70
2018-03-18T09:04:51.470Z,86.60
2018-03-18T09:07:19.035Z,86.60
2018-03-18T09:09:46.597Z,87.10
2018-03-18T09:12:14.140Z,85.80
2018-03-18T09:14:41.722Z,86.60
2018-03-18T09:17:09.253Z,86.50
2018-03-18T09:19:36.852Z,86.40
2018-03-18T09:22:04.486Z,86.80
2018-03-18T09:24:32.024Z,86.50
2018-03-18T09:27:00.329Z,87.30
2018-03-18T09:29:27.879Z,87.30
2018-03-18T09:31:56.250Z,86.00
2018-03-18T09:34:24.582Z,86.00
2018-03-18T09:36:52.120Z,86.00
2018-03-18T09:39:19.667Z,87.00
2018-03-18T09:41:48.223Z,86.90
2018-03-18T09:44:16.256Z,86.70
2018-03-18T09:46:43.812Z,86.20
2018-03-18T09:49:11.356Z,86.10
2018-03-18T09:51:39.693Z,86.00
2018-03-18T09:54:07.241Z,86.10
2018-03-18T09:56:34.810Z,86.10
2018-03-18T09:59:02.364Z,86.20
2018-03-18T10:01:29.903Z,85.20
2018-03-18T10:03:58.212Z,84.40
2018-03-18T10:06:25.757Z,84.40
2018-03-18T10:08:54.097Z,84.40
2018-03-18T10:11:21.677Z,85.10
2018-03-18T10:13:51.435Z,84.30
2018-03-18T10:16:19.119Z,83.80
2018-03-18T10:18:46.672Z,84.00
2018-03-18T10:21:14.261Z,83.70
2018-03-18T10:23:41.810Z,83.90
2018-03-18T10:26:09.364Z,84.60
2018-03-18T10:28:36.919Z,82.90
2018-03-18T10:31:05.234Z,83.30
2018-03-18T10:33:32.867Z,83.30
2018-03-18T10:36:01.199Z,83.30
2018-03-18T10:38:28.770Z,83.30
2018-03-18T10:40:56.319Z,84.00
2018-03-18T10:43:23.898Z,84.60
2018-03-18T10:45:51.463Z,84.20
2018-03-18T10:48:19.034Z,83.70
2018-03-18T10:50:46.588Z,84.40
2018-03-18T10:53:14.136Z,84.30
2018-03-18T10:55:41.703Z,84.70
2018-03-18T10:58:09.280Z,84.10
2018-03-18T11:00:42.345Z,84.40
2018-03-18T11:03:09.898Z,84.90
2018-03-18T11:05:38.224Z,84.40
2018-03-18T11:08:05.784Z,84.40
2018-03-18T11:10:33.344Z,84.90
2018-03-18T11:13:01.789Z,85.00
2018-03-18T11:15:29.383Z,85.00
2018-03-18T11:17:57.015Z,85.10
2018-03-18T11:20:24.576Z,85.00
2018-03-18T11:22:52.132Z,84.70
2018-03-18T11:25:19.662Z,84.20
2018-03-18T11:27:47.420Z,84.20
2018-03-18T11:30:14.992Z,84.10
2018-03-18T11:32:42.525Z,83.30
2018-03-18T11:35:10.836Z,82.90
2018-03-18T11:37:38.406Z,82.90
2018-03-18T11:40:05.979Z,82.90
2018-03-18T11:42:33.546Z,82.40
2018-03-18T11:45:01.100Z,82.30
2018-03-18T11:47:28.669Z,82.10
2018-03-18T11:49:56.270Z,81.50
2018-03-18T11:52:23.829Z,81.50
2018-03-18T11:54:51.385Z,81.60
2018-03-18T11:57:18.973Z,81.40
2018-03-18T11:59:46.525Z,81.50
2018-03-18T12:02:14.066Z,81.20
2018-03-18T12:04:41.662Z,80.30
2018-03-18T12:07:09.223Z,79.80
2018-03-18T12:09:36.826Z,80.40
2018-03-18T12:12:05.151Z,79.70
2018-03-18T12:14:32.710Z,79.60
2018-03-18T12:17:00.307Z,80.40
2018-03-18T12:19:27.892Z,78.90
2018-03-18T12:21:55.423Z,79.30
2018-03-18T12:24:22.987Z,79.20
2018-03-18T12:26:50.648Z,79.50
2018-03-18T12:29:18.232Z,79.20
2018-03-18T12:31:45.765Z,79.40
2018-03-18T12:34:13.346Z,79.10
2018-03-18T12:36:40.891Z,78.90
2018-03-18T12:39:08.681Z,78.80
2018-03-18T12:41:36.256Z,79.70
2018-03-18T12:44:03.836Z,80.00
2018-03-18T12:46:31.415Z,78.90
2018-03-18T12:48:58.966Z,78.70
2018-03-18T12:51:26.540Z,78.80
2018-03-18T12:53:54.083Z,78.60
2018-03-18T12:56:21.637Z,79.40
2018-03-18T12:58:49.238Z,79.10
2018-03-18T13:01:16.792Z,79.30
2018-03-18T13:03:44.362Z,78.10
2018-03-18T13:06:12.810Z,78.00
2018-03-18T13:08:40.371Z,78.00
2018-03-18T13:11:07.910Z,78.50
2018-03-18T13:13:35.460Z,79.00
2018-03-18T13:16:03.039Z,78.40
2018-03-18T13:18:31.348Z,79.30
2018-03-18T13:20:58.892Z,79.20
2018-03-18T13:23:27.233Z,80.00
2018-03-18T13:25:54.794Z,79.90
2018-03-18T13:28:22.355Z,79.80
2018-03-18T13:30:49.914Z,79.60
2018-03-18T13:33:17.468Z,80.00
2018-03-18T13:35:45.039Z,80.60
2018-03-18T13:38:12.577Z,80.40
2018-03-18T13:40:40.919Z,80.40
2018-03-18T13:43:08.487Z,80.40
2018-03-18T13:45:36.068Z,80.20
2018-03-18T13:48:03.624Z,80.10
2018-03-18T13:50:31.187Z,80.70
2018-03-18T13:52:58.831Z,80.20
2018-03-18T13:55:26.385Z,79.20
2018-03-18T13:57:53.935Z,80.60
2018-03-18T14:00:21.588Z,80.40
2018-03-18T14:02:49.913Z,80.70
2018-03-18T14:05:17.482Z,80.70
2018-03-18T14:07:45.055Z,81.10
2018-03-18T14:10:12.627Z,81.40
2018-03-18T14:12:40.164Z,80.50
2018-03-18T14:15:07.733Z,80.50
2018-03-18T14:17:35.595Z,79.60
2018-03-18T14:20:03.160Z,80.20
2018-03-18T14:22:31.453Z,80.40
2018-03-18T14:24:59.007Z,80.50
2018-03-18T14:27:26.579Z,80.50
2018-03-18T14:29:54.193Z,80.00
2018-03-18T14:32:21.749Z,79.80
2018-03-18T14:34:49.299Z,80.00
2018-03-18T14:37:16.842Z,79.70
2018-03-18T14:39:44.415Z,80.20
2018-03-18T14:42:12.368Z,80.40
2018-03-18T14:44:39.915Z,81.00
2018-03-18T14:47:08.241Z,80.50
2018-03-18T14:49:35.791Z,80.40
2018-03-18T14:52:03.354Z,80.50
2018-03-18T14:54:31.001Z,80.40
2018-03-18T14:56:59.315Z,80.50
2018-03-18T14:59:26.864Z,80.40
2018-03-18T15:01:54.423Z,80.00
2018-03-18T15:04:22.825Z,79.70
2018-03-18T15:06:50.385Z,79.70
2018-03-18T15:09:17.949Z,79.60
2018-03-18T15:11:45.499Z,79.80
2018-03-18T15:14:13.846Z,79.80
2018-03-18T15:16:41.399Z,79.80
2018-03-18T15:19:09.029Z,79.70
2018-03-18T15:21:36.640Z,78.80
2018-03-18T15:24:04.295Z,78.80
2018-03-18T15:26:31.992Z,78.50
2018-03-18T15:28:59.562Z,78.20
2018-03-18T15:31:27.175Z,78.30
2018-03-18T15:33:54.867Z,78.60
2018-03-18T15:36:22.416Z,78.20
2018-03-18T15:38:49.990Z,78.00
2018-03-18T15:41:17.569Z,78.70
2018-03-18T15:43:45.147Z,78.00
2018-03-18T15:46:12.699Z,78.10
2018-03-18T15:48:40.280Z,78.60
2018-03-18T15:51:07.912Z,78.70
2018-03-18T15:53:35.571Z,77.90
2018-03-18T15:56:03.197Z,77.50
2018-03-18T15:58:30.758Z,77.60
2018-03-18T16:00:58.329Z,77.50
2018-03-18T16:03:26.961Z,77.50
2018-03-18T16:05:54.517Z,77.80
2018-03-18T16:08:23.232Z,77.80
2018-03-18T16:10:50.792Z,77.70
2018-03-18T16:13:18.354Z,78.10
2018-03-18T16:15:45.968Z,76.90
2018-03-18T16:18:13.509Z,77.40
2018-03-18T16:20:41.858Z,77.40
2018-03-18T16:23:09.413Z,77.40
2018-03-18T16:25:37.747Z,77.50
2018-03-18T16:28:05.303Z,77.50
2018-03-18T16:30:45.572Z,77.40
2018-03-18T16:33:13.149Z,77.50
2018-03-18T16:35:40.726Z,77.50
2018-03-18T16:38:08.538Z,78.10
2018-03-18T16:40:36.088Z,78.20
2018-03-18T16:43:04.487Z,77.60
2018-03-18T16:45:32.048Z,77.50
2018-03-18T16:47:59.597Z,77.80
2018-03-18T16:50:28.056Z,77.60
2018-03-18T16:52:56.295Z,77.60
2018-03-18T16:55:23.886Z,78.00
2018-03-18T16:57:51.496Z,78.30
2018-03-18T17:00:19.853Z,78.40
2018-03-18T17:02:47.495Z,78.40
2018-03-18T17:05:15.056Z,78.30
2018-03-18T17:07:43.596Z,78.30
2018-03-18T17:10:11.367Z,78.10
2018-03-18T17:12:38.928Z,78.60
2018-03-18T17:15:06.562Z,78.20
2018-03-18T17:17:34.165Z,78.20
2018-03-18T17:20:01.784Z,78.00
2018-03-18T17:22:29.433Z,78.00
2018-03-18T17:24:57.015Z,77.70
2018-03-18T17:27:24.696Z,78.00
2018-03-18T17:29:52.538Z,77.80
2018-03-18T17:32:20.098Z,78.00
2018-03-18T17:34:48.819Z,77.40
2018-03-18T17:37:16.404Z,77.20
2018-03-18T17:39:44.080Z,77.30
2018-03-18T17:42:11.662Z,77.30
2018-03-18T17:44:51.924Z,77.20
2018-03-18T17:47:31.336Z,77.10
2018-03-18T17:50:10.699Z,77.30
2018-03-18T17:52:50.850Z,76.70
2018-03-18T17:55:25.934Z,76.90
2018-03-18T17:57:53.619Z,76.80
2018-03-18T18:00:21.713Z,76.80
2018-03-18T18:02:49.926Z,76.50
2018-03-18T18:05:17.684Z,76.10
2018-03-18T18:07:47.354Z,76.20
2018-03-18T18:10:16.164Z,77.30
2018-03-18T18:12:45.672Z,77.00
2018-03-18T18:15:13.646Z,76.30
2018-03-18T18:17:44.718Z,76.10
2018-03-18T18:20:13.337Z,76.10
2018-03-18T18:22:41.064Z,75.50
2018-03-18T18:25:08.708Z,75.70
2018-03-18T18:27:36.327Z,75.40
2018-03-18T18:30:05.021Z,75.90
2018-03-18T18:32:32.732Z,75.90
2018-03-18T18:35:00.519Z,76.00
2018-03-18T18:37:28.776Z,75.70
2018-03-18T18:39:56.564Z,76.00
2018-03-18T18:42:24.282Z,75.90
2018-03-18T18:44:52.095Z,75.30
2018-03-18T18:47:19.692Z,75.60
2018-03-18T18:49:47.281Z,75.80
2018-03-18T18:52:15.720Z,75.80
2018-03-18T18:54:43.419Z,75.80
2018-03-18T18:57:11.117Z,76.00
2018-03-18T18:59:38.840Z,76.10
2018-03-18T19:02:06.426Z,76.20
2018-03-18T19:04:34.124Z,76.20
2018-03-18T19:07:01.751Z,76.10
2018-03-18T19:09:29.364Z,76.00
2018-03-18T19:11:56.934Z,76.10
2018-03-18T19:14:24.571Z,75.80
2018-03-18T19:16:52.963Z,75.40
2018-03-18T19:19:21.369Z,75.30
2018-03-18T19:21:49.127Z,75.30
2018-03-18T19:24:18.395Z,75.40
2018-03-18T19:26:46.349Z,75.20
2018-03-18T19:29:13.935Z,75.20
2018-03-18T19:31:41.621Z,75.20
2018-03-18T19:34:10.761Z,75.40
2018-03-18T19:36:38.406Z,75.40
2018-03-18T19:39:05.981Z,75.10
2018-03-18T19:41:33.602Z,75.10
2018-03-18T19:44:01.263Z,74.70
2018-03-18T19:46:28.909Z,75.00
2018-03-18T19:48:56.560Z,74.70
2018-03-18T19:51:24.187Z,74.80
2018-03-18T19:53:52.684Z,75.20
2018-03-18T19:56:21.402Z,75.00
2018-03-18T19:58:49.229Z,75.00
2018-03-18T20:01:17.165Z,75.10
2018-03-18T20:03:45.011Z,75.40
2018-03-18T20:06:13.445Z,75.20
2018-03-18T20:08:42.001Z,75.50
2018-03-18T20:11:09.769Z,75.40
2018-03-18T20:13:37.483Z,75.20
2018-03-18T20:16:05.208Z,74.90
2018-03-18T20:18:32.871Z,75.20
2018-03-18T20:21:00.591Z,75.30
2018-03-18T20:23:28.321Z,75.40
2018-03-18T20:25:56.187Z,75.20
2018-03-18T20:28:23.874Z,75.60
2018-03-18T20:30:51.632Z,75.20
2018-03-18T20:33:19.307Z,75.20
2018-03-18T20:35:47.028Z,75.20
2018-03-18T20:38:15.457Z,75.10
2018-03-18T20:40:43.043Z,75.10
2018-03-18T20:43:11.474Z,75.20
2018-03-18T20:45:39.821Z,75.30
2018-03-18T20:48:07.451Z,75.20
2018-03-18T20:50:35.103Z,75.30
2018-03-18T20:53:02.726Z,75.20
2018-03-18T20:55:30.319Z,75.30
2018-03-18T20:57:58.688Z,75.40
2018-03-18T21:00:26.308Z,75.30
2018-03-18T21:02:53.883Z,75.50
2018-03-18T21:05:21.448Z,75.50
2018-03-18T21:07:49.033Z,75.30
2018-03-18T21:10:16.615Z,75.30
2018-03-18T21:12:44.566Z,75.50
2018-03-18T21:15:12.141Z,75.50
2018-03-18T21:17:39.708Z,75.60
2018-03-18T21:20:07.359Z,75.70
2018-03-18T21:22:35.744Z,75.70
2018-03-18T21:25:03.327Z,75.70
2018-03-18T21:27:30.887Z,75.70
2018-03-18T21:29:58.525Z,75.70
2018-03-18T21:32:26.077Z,75.50
2018-03-18T21:34:53.616Z,75.80
2018-03-18T21:37:22.439Z,76.40
2018-03-18T21:39:50.073Z,76.40
2018-03-18T21:42:17.626Z,76.00
2018-03-18T21:44:45.160Z,76.10
2018-03-18T21:47:12.707Z,76.30
2018-03-18T21:49:40.278Z,76.10
2018-03-18T21:52:07.832Z,75.90
2018-03-18T21:54:35.396Z,76.00
2018-03-18T21:57:02.966Z,76.60
2018-03-18T21:59:30.512Z,76.80
2018-03-18T22:01:58.869Z,76.70
2018-03-18T22:04:26.416Z,76.50
2018-03-18T22:06:53.954Z,76.50
2018-03-18T22:09:21.595Z,76.60
2018-03-18T22:11:49.898Z,76.50
2018-03-18T22:14:17.458Z,76.50
2018-03-18T22:16:44.999Z,76.90
2018-03-18T22:19:13.308Z,77.00
2018-03-18T22:21:40.870Z,76.90
2018-03-18T22:24:08.490Z,76.90
2018-03-18T22:26:36.062Z,77.40
2018-03-18T22:29:03.674Z,77.60
2018-03-18T22:31:31.191Z,77.50
2018-03-18T22:33:58.729Z,77.90
2018-03-18T22:36:26.422Z,77.90
2018-03-18T22:38:54.034Z,78.10
2018-03-18T22:41:21.570Z,78.00
2018-03-18T22:43:49.114Z,78.10
2018-03-18T22:46:16.687Z,78.20
2018-03-18T22:48:44.243Z,78.10
2018-03-18T22:51:12.068Z,78.20
2018-03-18T22:53:39.599Z,78.30
2018-03-18T22:56:07.140Z,78.70
2018-03-18T22:58:35.458Z,79.00
2018-03-18T23:01:03.774Z,78.70
2018-03-18T23:03:31.632Z,78.70
2018-03-18T23:05:59.159Z,78.80
2018-03-18T23:08:26.780Z,79.20
2018-03-18T23:10:54.336Z,79.20
2018-03-18T23:13:21.904Z,79.20
2018-03-18T23:15:49.529Z,79.20
2018-03-18T23:18:17.083Z,79.30
2018-03-18T23:20:44.634Z,79.80
2018-03-18T23:23:12.177Z,79.60
2018-03-18T23:25:39.739Z,79.50
2018-03-18T23:28:08.848Z,79.80
2018-03-18T23:30:36.432Z,79.60
2018-03-18T23:33:03.993Z,79.20
2018-03-18T23:35:31.582Z,79.80
2018-03-18T23:37:59.140Z,79.80
2018-03-18T23:40:26.705Z,80.00
2018-03-18T23:42:54.382Z,80.00
2018-03-18T23:45:21.928Z,80.30
2018-03-18T23:47:49.523Z,80.00
2018-03-18T23:50:17.832Z,80.40
2018-03-18T23:52:45.462Z,80.40
2018-03-18T23:55:13.011Z,80.40
2018-03-18T23:57:40.576Z,80.30
